Local area metar reports


Our local metar:
KGOO 200115Z AUTO 30004KT 10SM CLR 27/09 A3006 RMK AO1

Decoded:

station                        KGOO
observed_date Wed, 20 Jun 2018 01:15:00 +0000
observed_age 5 min. ago
wind_speed 4
wind_direction 300
wind_direction_label WNW
visibility_report 10 miles
present_weather_report Dry
clouds_report Clear skies
temperature_f 81
dew_point_f 48
humidity 32
barometer 30.06
remarks AO1



Auburn's metar:
KAUN 200115Z AUTO 00000KT 10SM CLR 31/09 A2997 RMK AO1

Decoded:

station                        KAUN
observed_date Wed, 20 Jun 2018 01:15:00 +0000
observed_age 5 min. ago
wind_speed 0
wind_direction 0
wind_direction_label N
visibility_report 10 miles
present_weather_report Dry
clouds_report Clear skies
temperature_f 88
dew_point_f 48
humidity 25
barometer 29.97
remarks AO1



Lincoln's metar:
KLHM 200115Z AUTO 00000KT 10SM CLR 33/08 A2987 RMK AO1

Decoded:

station                        KLHM
observed_date Wed, 20 Jun 2018 01:15:00 +0000
observed_age 5 min. ago
wind_speed 0
wind_direction 0
wind_direction_label N
visibility_report 10 miles
present_weather_report Dry
clouds_report Clear skies
temperature_f 91
dew_point_f 46
humidity 21
barometer 29.87
remarks AO1